Time;durP1;ratioP1;P1;durP2;ratioP2;P2;SDS_P1;SDS_P2;PMS_P1;PMS_P2;Temp;Humidity;BMP_temperature;BMP_pressure;BME280_temperature;BME280_humidity;BME280_pressure;Samples;Min_cycle;Max_cycle;Signal;HPM_P1;HPM_P2
2022/10/30 00:02:06;;;;;;;16.67;9.90;;;;;;;;;;5041346;28;20812;-73
2022/10/30 00:04:32;;;;;;;12.73;8.50;;;;;;;;;;5045179;28;20707;-74
2022/10/30 00:06:58;;;;;;;16.07;8.47;;;;;;;;;;5052481;28;20620;-73
2022/10/30 00:09:24;;;;;;;15.23;8.73;;;;;;;;;;5052609;28;20192;-73
2022/10/30 00:11:50;;;;;;;16.03;9.10;;;;;;;;;;5051657;28;20172;-73
2022/10/30 00:14:17;;;;;;;16.20;9.47;;;;;;;;;;5045096;28;20209;-73
2022/10/30 00:16:43;;;;;;;16.40;9.60;;;;;;;;;;5049659;28;20296;-73
2022/10/30 00:19:09;;;;;;;16.23;10.47;;;;;;;;;;5052329;28;20207;-73
2022/10/30 00:21:36;;;;;;;14.27;9.13;;;;;;;;;;5043945;28;20574;-74
2022/10/30 00:24:02;;;;;;;12.50;8.97;;;;;;;;;;5049183;28;20192;-73
2022/10/30 00:26:30;;;;;;;14.73;8.57;;;;;;;;;;5051072;28;20300;-73
2022/10/30 00:28:57;;;;;;;16.53;9.70;;;;;;;;;;5045276;28;20190;-74
2022/10/30 00:31:23;;;;;;;12.40;8.80;;;;;;;;;;5064298;28;20262;-73
2022/10/30 00:33:52;;;;;;;12.60;8.10;;;;;;;;;;5053102;28;20178;-73
2022/10/30 00:36:19;;;;;;;19.43;9.90;;;;;;;;;;5052042;28;20226;-73
2022/10/30 00:38:47;;;;;;;17.93;9.83;;;;;;;;;;5051329;28;20209;-73
2022/10/30 00:41:18;;;;;;;13.67;8.67;;;;;;;;;;5050316;28;20650;-73
2022/10/30 00:43:44;;;;;;;16.47;9.27;;;;;;;;;;5050349;28;20243;-73
2022/10/30 00:46:13;;;;;;;15.80;9.70;;;;;;;;;;5048698;28;20273;-73
2022/10/30 00:48:40;;;;;;;13.97;9.30;;;;;;;;;;5048160;28;20707;-73
2022/10/30 00:51:07;;;;;;;19.93;10.00;;;;;;;;;;5050752;28;20771;-73
2022/10/30 00:53:33;;;;;;;18.13;10.07;;;;;;;;;;5051048;28;20197;-74
2022/10/30 00:56:01;;;;;;;14.60;9.00;;;;;;;;;;5050613;28;20263;-73
2022/10/30 00:58:32;;;;;;;14.63;8.77;;;;;;;;;;5051329;28;20180;-73
2022/10/30 01:01:00;;;;;;;12.07;8.43;;;;;;;;;;5042122;28;20187;-73
2022/10/30 01:03:27;;;;;;;15.60;8.27;;;;;;;;;;5048193;28;20170;-73
2022/10/30 01:05:56;;;;;;;13.00;8.77;;;;;;;;;;5047315;28;20205;-73
2022/10/30 01:08:22;;;;;;;14.20;8.60;;;;;;;;;;5052197;28;20590;-73
2022/10/30 01:10:49;;;;;;;16.03;8.90;;;;;;;;;;5050361;28;20186;-73
2022/10/30 01:13:16;;;;;;;16.03;10.67;;;;;;;;;;5047411;28;20261;-73
2022/10/30 01:15:49;;;;;;;16.23;11.23;;;;;;;;;;5047986;28;20201;-73
2022/10/30 01:18:36;;;;;;;16.07;10.67;;;;;;;;;;5045678;28;20952;-73
2022/10/30 01:21:12;;;;;;;20.63;10.80;;;;;;;;;;5046901;28;20297;-73
2022/10/30 01:24:02;;;;;;;14.03;9.60;;;;;;;;;;5048021;28;20272;-73
2022/10/30 01:26:40;;;;;;;15.73;9.17;;;;;;;;;;5046803;28;20217;-73
2022/10/30 01:29:13;;;;;;;16.23;9.37;;;;;;;;;;5053760;28;20660;-73
2022/10/30 01:31:40;;;;;;;18.07;10.20;;;;;;;;;;5045336;28;20190;-73
2022/10/30 01:34:15;;;;;;;15.20;10.60;;;;;;;;;;5044535;28;20545;-73
2022/10/30 01:36:49;;;;;;;15.87;9.20;;;;;;;;;;5045715;28;20699;-73
2022/10/30 01:39:20;;;;;;;12.50;8.80;;;;;;;;;;5047392;28;20235;-73
2022/10/30 01:41:47;;;;;;;14.77;8.63;;;;;;;;;;5047518;28;20603;-73
2022/10/30 01:44:16;;;;;;;14.63;9.27;;;;;;;;;;5029148;28;20526;-73
2022/10/30 01:47:01;;;;;;;16.20;9.13;;;;;;;;;;5033495;28;20230;-73
2022/10/30 01:49:46;;;;;;;15.90;9.07;;;;;;;;;;5046519;28;20193;-74
2022/10/30 01:52:24;;;;;;;15.73;8.80;;;;;;;;;;5046354;28;20206;-74
2022/10/30 01:55:09;;;;;;;16.97;8.80;;;;;;;;;;5048156;28;20806;-73
2022/10/30 01:57:47;;;;;;;12.63;8.10;;;;;;;;;;5046817;28;20793;-74
2022/10/30 02:00:14;;;;;;;13.47;9.63;;;;;;;;;;5045556;28;20240;-73
2022/10/30 02:02:45;;;;;;;13.13;8.93;;;;;;;;;;5042878;28;20613;-73
2022/10/30 02:05:17;;;;;;;13.67;8.53;;;;;;;;;;5057832;28;20438;-73
2022/10/30 02:07:43;;;;;;;13.90;8.90;;;;;;;;;;5047447;28;20182;-73
2022/10/30 02:10:10;;;;;;;19.10;9.00;;;;;;;;;;5047289;28;20181;-73
2022/10/30 02:12:36;;;;;;;16.47;8.90;;;;;;;;;;5054594;28;20665;-74
2022/10/30 02:15:03;;;;;;;11.53;7.83;;;;;;;;;;5045273;28;20212;-73
2022/10/30 02:17:29;;;;;;;11.63;8.40;;;;;;;;;;5046915;28;20179;-73
2022/10/30 02:19:55;;;;;;;12.30;7.77;;;;;;;;;;5046770;28;20232;-73
2022/10/30 02:22:23;;;;;;;10.90;7.80;;;;;;;;;;5046153;28;20594;-73
2022/10/30 02:24:49;;;;;;;14.27;8.00;;;;;;;;;;5046657;28;20198;-73
2022/10/30 02:27:17;;;;;;;12.10;8.27;;;;;;;;;;5043495;28;20190;-74
2022/10/30 02:29:44;;;;;;;17.43;9.17;;;;;;;;;;5045677;28;20501;-73
2022/10/30 02:32:10;;;;;;;15.10;8.37;;;;;;;;;;5043407;28;20178;-73
2022/10/30 02:34:36;;;;;;;12.10;7.70;;;;;;;;;;5050423;28;20182;-73
2022/10/30 02:37:02;;;;;;;13.43;7.73;;;;;;;;;;5046063;28;20335;-73
2022/10/30 02:39:28;;;;;;;13.20;7.73;;;;;;;;;;5047937;28;20201;-73
2022/10/30 02:41:55;;;;;;;10.27;7.50;;;;;;;;;;5044154;28;20546;-74
2022/10/30 02:44:21;;;;;;;10.07;7.40;;;;;;;;;;5045552;28;20182;-74
2022/10/30 02:46:47;;;;;;;12.77;8.80;;;;;;;;;;5045691;28;20201;-74
2022/10/30 02:49:14;;;;;;;11.00;8.17;;;;;;;;;;5047531;28;20254;-73
2022/10/30 02:51:40;;;;;;;13.33;8.60;;;;;;;;;;5046662;28;20735;-74
2022/10/30 02:54:06;;;;;;;12.53;7.80;;;;;;;;;;5045811;28;20247;-73
2022/10/30 02:56:32;;;;;;;14.57;9.07;;;;;;;;;;5040192;28;20744;-74
2022/10/30 02:58:59;;;;;;;11.97;8.57;;;;;;;;;;5041601;28;20206;-73
2022/10/30 03:01:25;;;;;;;10.77;8.43;;;;;;;;;;5045057;28;20182;-73
2022/10/30 03:03:55;;;;;;;12.70;7.50;;;;;;;;;;5045957;28;20277;-73
2022/10/30 03:06:22;;;;;;;14.00;8.67;;;;;;;;;;5041433;28;20244;-74
2022/10/30 03:08:49;;;;;;;15.20;8.63;;;;;;;;;;5042321;28;20178;-74
2022/10/30 03:11:17;;;;;;;14.23;8.43;;;;;;;;;;5042828;28;20178;-74
2022/10/30 03:13:46;;;;;;;15.23;8.40;;;;;;;;;;5045665;28;20304;-74
2022/10/30 03:16:14;;;;;;;16.93;8.83;;;;;;;;;;5044383;28;20198;-74
2022/10/30 03:18:40;;;;;;;12.23;7.90;;;;;;;;;;5046661;28;20253;-73
2022/10/30 03:21:11;;;;;;;14.37;8.60;;;;;;;;;;5044016;28;20251;-73
2022/10/30 03:23:37;;;;;;;11.30;8.00;;;;;;;;;;5042093;28;20179;-73
2022/10/30 03:26:03;;;;;;;10.77;7.37;;;;;;;;;;5043687;28;20305;-73
2022/10/30 03:28:34;;;;;;;14.13;8.53;;;;;;;;;;5044464;28;20178;-74
2022/10/30 03:31:04;;;;;;;10.97;7.53;;;;;;;;;;5045065;28;20186;-73
2022/10/30 03:33:31;;;;;;;13.50;8.00;;;;;;;;;;5045484;28;20252;-73
2022/10/30 03:35:57;;;;;;;11.83;7.53;;;;;;;;;;5044090;28;20275;-73
2022/10/30 03:38:23;;;;;;;12.93;7.63;;;;;;;;;;5046611;28;20181;-73
2022/10/30 03:40:50;;;;;;;12.37;8.13;;;;;;;;;;5036233;28;20244;-73
2022/10/30 03:43:16;;;;;;;10.83;8.40;;;;;;;;;;5044753;28;20183;-73
2022/10/30 03:45:50;;;;;;;9.90;7.50;;;;;;;;;;5045044;28;20615;-73
2022/10/30 03:48:17;;;;;;;12.00;7.90;;;;;;;;;;5044386;28;20176;-73
2022/10/30 03:50:44;;;;;;;11.43;7.67;;;;;;;;;;5040782;28;20217;-73
2022/10/30 03:53:11;;;;;;;13.23;8.00;;;;;;;;;;5044140;28;20174;-73
2022/10/30 03:55:37;;;;;;;12.37;7.53;;;;;;;;;;5044918;28;20201;-73
2022/10/30 03:58:03;;;;;;;12.80;8.07;;;;;;;;;;5046244;28;20174;-73
2022/10/30 04:00:30;;;;;;;13.90;8.40;;;;;;;;;;5044441;28;20211;-73
2022/10/30 04:02:58;;;;;;;14.20;7.87;;;;;;;;;;5044345;28;20476;-73
2022/10/30 04:05:26;;;;;;;12.90;9.03;;;;;;;;;;5041671;28;20725;-73
2022/10/30 04:07:58;;;;;;;14.83;8.60;;;;;;;;;;5041846;28;20388;-73
2022/10/30 04:10:25;;;;;;;13.37;7.87;;;;;;;;;;5056103;28;20235;-73
2022/10/30 04:12:53;;;;;;;13.23;8.10;;;;;;;;;;5027864;28;20240;-74
2022/10/30 04:15:19;;;;;;;14.63;8.83;;;;;;;;;;5044848;28;20547;-73
2022/10/30 04:17:50;;;;;;;18.27;8.97;;;;;;;;;;5044248;28;20182;-73
2022/10/30 04:20:17;;;;;;;12.10;8.03;;;;;;;;;;5044061;28;20205;-73
2022/10/30 04:22:43;;;;;;;14.40;7.90;;;;;;;;;;5040548;28;20481;-73
2022/10/30 04:25:11;;;;;;;13.60;8.10;;;;;;;;;;5036229;28;20201;-73
2022/10/30 04:27:41;;;;;;;12.93;7.33;;;;;;;;;;5044139;28;20604;-74
2022/10/30 04:30:09;;;;;;;12.90;7.43;;;;;;;;;;5044435;28;20289;-73
2022/10/30 04:32:35;;;;;;;11.03;7.80;;;;;;;;;;5044751;28;20173;-73
2022/10/30 04:35:03;;;;;;;15.60;8.90;;;;;;;;;;5043505;28;20502;-73
2022/10/30 04:37:29;;;;;;;15.23;9.00;;;;;;;;;;5030106;28;20576;-73
2022/10/30 04:39:56;;;;;;;14.60;9.03;;;;;;;;;;5043927;28;20259;-74
2022/10/30 04:42:25;;;;;;;16.03;8.97;;;;;;;;;;5041160;28;20673;-73
2022/10/30 04:44:53;;;;;;;13.67;7.80;;;;;;;;;;5043355;28;20864;-73
2022/10/30 04:47:19;;;;;;;12.10;8.03;;;;;;;;;;5044465;28;20186;-73
2022/10/30 04:49:45;;;;;;;15.80;8.10;;;;;;;;;;5042948;28;20186;-73
2022/10/30 04:52:11;;;;;;;13.77;7.83;;;;;;;;;;5048465;28;20201;-73
2022/10/30 04:54:37;;;;;;;12.50;8.43;;;;;;;;;;5046456;28;20637;-73
2022/10/30 04:57:04;;;;;;;10.87;7.67;;;;;;;;;;5031577;28;20196;-73
2022/10/30 04:59:30;;;;;;;11.53;8.10;;;;;;;;;;5048418;28;20211;-73
2022/10/30 05:01:57;;;;;;;11.60;7.93;;;;;;;;;;5047821;28;20174;-73
2022/10/30 05:04:23;;;;;;;13.40;8.60;;;;;;;;;;5043590;28;20243;-73
2022/10/30 05:06:49;;;;;;;9.90;7.73;;;;;;;;;;5046654;28;20218;-73
2022/10/30 05:09:15;;;;;;;10.87;7.80;;;;;;;;;;5046170;28;20231;-73
2022/10/30 05:11:42;;;;;;;9.30;7.90;;;;;;;;;;5041639;28;20624;-73
2022/10/30 05:14:08;;;;;;;12.67;7.67;;;;;;;;;;5047029;28;20211;-73
2022/10/30 05:16:34;;;;;;;14.40;8.20;;;;;;;;;;5048514;28;20680;-73
2022/10/30 05:19:02;;;;;;;11.13;7.57;;;;;;;;;;5046534;28;20217;-73
2022/10/30 05:21:29;;;;;;;13.37;8.17;;;;;;;;;;5044792;28;20183;-73
2022/10/30 05:23:55;;;;;;;11.33;7.80;;;;;;;;;;5048363;28;20175;-74
2022/10/30 05:26:22;;;;;;;14.73;8.30;;;;;;;;;;5047295;28;20681;-73
2022/10/30 05:28:50;;;;;;;9.17;7.23;;;;;;;;;;5047192;28;20278;-73
2022/10/30 05:31:17;;;;;;;10.87;7.53;;;;;;;;;;5045430;28;20185;-73
2022/10/30 05:34:01;;;;;;;9.80;7.50;;;;;;;;;;5040864;28;20225;-73
2022/10/30 05:36:28;;;;;;;12.67;7.87;;;;;;;;;;5041322;28;20693;-74
2022/10/30 05:38:54;;;;;;;11.40;7.27;;;;;;;;;;5060996;28;20177;-73
2022/10/30 05:41:31;;;;;;;13.00;8.00;;;;;;;;;;5045731;28;20209;-73
2022/10/30 05:43:57;;;;;;;12.30;7.57;;;;;;;;;;5044203;28;20182;-73
2022/10/30 05:46:25;;;;;;;12.47;7.93;;;;;;;;;;5043634;28;20202;-74
2022/10/30 05:48:52;;;;;;;10.37;7.73;;;;;;;;;;5044369;28;20243;-73
2022/10/30 05:51:19;;;;;;;9.90;7.40;;;;;;;;;;5045632;28;20187;-73
2022/10/30 05:53:50;;;;;;;12.53;7.93;;;;;;;;;;5043187;28;20677;-73
2022/10/30 05:56:19;;;;;;;13.17;7.60;;;;;;;;;;5049160;28;20202;-73
2022/10/30 05:58:48;;;;;;;12.07;8.27;;;;;;;;;;5046548;28;20185;-73
2022/10/30 06:01:15;;;;;;;13.23;8.75;;;;;;;;;;5046161;28;20423;-73
2022/10/30 06:03:45;;;;;;;12.20;7.60;;;;;;;;;;5042120;28;20184;-73
2022/10/30 06:06:12;;;;;;;11.93;8.07;;;;;;;;;;5044609;28;20209;-73
2022/10/30 06:08:38;;;;;;;10.57;8.40;;;;;;;;;;5044479;28;20208;-74
2022/10/30 06:11:22;;;;;;;12.40;7.60;;;;;;;;;;5035032;28;20519;-73
2022/10/30 06:13:53;;;;;;;12.27;7.20;;;;;;;;;;5044208;28;20557;-73
2022/10/30 06:16:25;;;;;;;12.20;7.23;;;;;;;;;;5046546;28;20260;-73
2022/10/30 06:19:03;;;;;;;10.83;7.30;;;;;;;;;;5047372;28;20213;-73
2022/10/30 06:21:31;;;;;;;9.83;7.40;;;;;;;;;;5046613;28;20293;-73
2022/10/30 06:24:32;;;;;;;10.43;7.13;;;;;;;;;;5034649;28;20265;-73
2022/10/30 06:27:07;;;;;;;15.00;8.10;;;;;;;;;;5038786;28;20592;-73
2022/10/30 06:29:33;;;;;;;10.53;7.70;;;;;;;;;;5045438;28;20273;-73
2022/10/30 06:31:59;;;;;;;11.03;7.93;;;;;;;;;;5045190;28;20972;-73
2022/10/30 06:34:26;;;;;;;14.13;8.67;;;;;;;;;;5027171;28;20598;-73
2022/10/30 06:36:52;;;;;;;12.37;7.13;;;;;;;;;;5045319;28;20347;-73
2022/10/30 06:39:18;;;;;;;10.70;7.80;;;;;;;;;;5044250;28;20654;-73
2022/10/30 06:42:05;;;;;;;10.70;7.90;;;;;;;;;;5045674;28;20259;-73
2022/10/30 06:44:57;;;;;;;13.43;7.70;;;;;;;;;;5023946;28;20522;-73
2022/10/30 06:47:23;;;;;;;15.33;8.67;;;;;;;;;;5044701;28;20170;-73
2022/10/30 06:49:50;;;;;;;11.37;7.77;;;;;;;;;;5047671;28;20193;-73
2022/10/30 06:52:18;;;;;;;11.10;7.77;;;;;;;;;;5038069;28;20181;-73
2022/10/30 06:54:44;;;;;;;11.50;8.00;;;;;;;;;;5044908;28;20193;-73
2022/10/30 06:57:41;;;;;;;11.27;7.17;;;;;;;;;;5039304;28;20182;-73
2022/10/30 07:00:39;;;;;;;10.60;7.17;;;;;;;;;;5029295;28;20267;-74
2022/10/30 07:03:25;;;;;;;11.37;7.37;;;;;;;;;;5039280;28;20193;-73
2022/10/30 07:05:51;;;;;;;11.60;7.80;;;;;;;;;;5041621;28;20204;-74
2022/10/30 07:08:17;;;;;;;12.27;7.87;;;;;;;;;;5039834;28;20643;-73
2022/10/30 07:10:43;;;;;;;12.90;8.10;;;;;;;;;;5041975;28;20183;-73
2022/10/30 07:13:32;;;;;;;15.70;8.83;;;;;;;;;;5034514;28;20178;-74
2022/10/30 07:16:20;;;;;;;14.80;8.87;;;;;;;;;;5044059;28;20263;-73
2022/10/30 07:18:48;;;;;;;12.73;7.70;;;;;;;;;;5038683;28;20186;-72
2022/10/30 07:21:14;;;;;;;12.93;7.90;;;;;;;;;;5061020;28;20282;-73
2022/10/30 07:23:40;;;;;;;13.67;8.63;;;;;;;;;;5041221;28;20742;-73
2022/10/30 07:26:37;;;;;;;17.13;8.67;;;;;;;;;;5035841;28;20216;-74
2022/10/30 07:29:13;;;;;;;13.50;8.17;;;;;;;;;;5036946;28;20189;-72
2022/10/30 07:31:45;;;;;;;9.87;7.40;;;;;;;;;;5043514;28;20190;-72
2022/10/30 07:34:11;;;;;;;11.93;7.80;;;;;;;;;;5044617;28;20630;-73
2022/10/30 07:36:56;;;;;;;13.83;8.13;;;;;;;;;;5038635;28;20557;-73
2022/10/30 07:39:38;;;;;;;13.90;8.03;;;;;;;;;;5037357;28;20213;-73
2022/10/30 07:42:22;;;;;;;8.83;7.03;;;;;;;;;;5051022;28;20197;-73
2022/10/30 07:45:24;;;;;;;13.07;8.00;;;;;;;;;;5042328;28;20267;-73
2022/10/30 07:48:08;;;;;;;15.80;8.47;;;;;;;;;;5034519;28;20243;-73
2022/10/30 07:50:43;;;;;;;14.17;8.23;;;;;;;;;;5043897;28;20190;-73
2022/10/30 07:53:09;;;;;;;13.00;7.67;;;;;;;;;;5043354;28;20235;-73
2022/10/30 07:55:36;;;;;;;13.50;8.27;;;;;;;;;;5039574;28;20217;-73
2022/10/30 07:58:25;;;;;;;13.23;7.93;;;;;;;;;;5024206;28;20687;-73
2022/10/30 08:01:10;;;;;;;13.47;7.80;;;;;;;;;;5041570;28;20280;-73
2022/10/30 08:03:36;;;;;;;16.57;8.00;;;;;;;;;;5043897;28;20185;-73
2022/10/30 08:06:25;;;;;;;16.23;7.83;;;;;;;;;;5043276;28;20216;-73
2022/10/30 08:08:51;;;;;;;11.90;8.23;;;;;;;;;;5043264;28;20243;-73
2022/10/30 08:11:27;;;;;;;12.03;8.90;;;;;;;;;;5042421;28;20190;-73
2022/10/30 08:13:54;;;;;;;13.23;8.93;;;;;;;;;;5043162;28;20333;-73
2022/10/30 08:16:20;;;;;;;13.33;9.23;;;;;;;;;;5039948;28;20247;-73
2022/10/30 08:18:48;;;;;;;14.13;9.57;;;;;;;;;;5044044;28;20200;-73
2022/10/30 08:21:14;;;;;;;11.93;8.97;;;;;;;;;;5038711;28;20176;-73
2022/10/30 08:23:52;;;;;;;16.00;8.70;;;;;;;;;;5038727;28;20186;-73
2022/10/30 08:26:19;;;;;;;15.30;9.43;;;;;;;;;;5059657;28;20739;-73
2022/10/30 08:28:45;;;;;;;14.60;8.90;;;;;;;;;;5045114;28;20182;-73
2022/10/30 08:31:12;;;;;;;15.30;9.07;;;;;;;;;;5040675;28;20289;-73
2022/10/30 08:34:14;;;;;;;14.83;8.47;;;;;;;;;;4984757;28;20210;-73
2022/10/30 08:36:48;;;;;;;13.47;8.13;;;;;;;;;;5035873;28;20213;-73
2022/10/30 08:39:15;;;;;;;11.33;8.63;;;;;;;;;;5047946;28;20583;-73
2022/10/30 08:41:45;;;;;;;12.10;8.43;;;;;;;;;;5041270;28;20677;-73
2022/10/30 08:44:12;;;;;;;13.07;8.50;;;;;;;;;;5039713;28;20721;-73
2022/10/30 08:46:58;;;;;;;10.77;8.70;;;;;;;;;;5041554;28;20545;-73
2022/10/30 08:49:24;;;;;;;15.23;9.07;;;;;;;;;;5026692;28;20292;-73
2022/10/30 08:51:53;;;;;;;17.83;10.40;;;;;;;;;;5041765;28;20235;-73
2022/10/30 08:54:20;;;;;;;16.67;10.27;;;;;;;;;;5042303;28;20315;-73
2022/10/30 08:56:46;;;;;;;18.47;10.83;;;;;;;;;;5042606;28;20205;-73
2022/10/30 08:59:12;;;;;;;13.90;10.43;;;;;;;;;;5050847;28;20319;-74
2022/10/30 09:01:39;;;;;;;18.17;10.40;;;;;;;;;;5036856;28;20493;-73
2022/10/30 09:04:21;;;;;;;18.23;9.43;;;;;;;;;;5041368;28;20259;-73
2022/10/30 09:07:07;;;;;;;15.80;9.63;;;;;;;;;;5042594;28;20592;-74
2022/10/30 09:09:36;;;;;;;16.33;9.57;;;;;;;;;;5043267;28;20182;-73
2022/10/30 09:12:03;;;;;;;17.40;9.00;;;;;;;;;;5035859;28;20221;-73
2022/10/30 09:14:35;;;;;;;16.20;9.63;;;;;;;;;;5042285;28;20190;-75
2022/10/30 09:17:01;;;;;;;16.27;9.87;;;;;;;;;;5043551;28;20295;-75
2022/10/30 09:19:29;;;;;;;14.77;8.77;;;;;;;;;;5040518;28;20194;-74
2022/10/30 09:21:57;;;;;;;15.73;9.43;;;;;;;;;;5025912;28;20203;-74
2022/10/30 09:24:23;;;;;;;14.83;9.20;;;;;;;;;;5004854;28;20542;-74
2022/10/30 09:26:49;;;;;;;12.37;8.83;;;;;;;;;;5037610;28;20197;-73
2022/10/30 09:29:24;;;;;;;21.80;10.10;;;;;;;;;;5035653;28;20690;-73
2022/10/30 09:31:56;;;;;;;20.70;10.13;;;;;;;;;;5038844;28;20636;-77
2022/10/30 09:34:26;;;;;;;14.00;9.97;;;;;;;;;;5039583;28;20221;-77
2022/10/30 09:37:03;;;;;;;17.00;10.23;;;;;;;;;;5042530;28;20833;-77
2022/10/30 09:39:34;;;;;;;17.40;10.07;;;;;;;;;;5044578;28;20214;-77
2022/10/30 09:42:06;;;;;;;16.00;9.93;;;;;;;;;;5033054;28;20247;-77
2022/10/30 09:44:37;;;;;;;18.60;10.13;;;;;;;;;;5038623;28;20176;-77
2022/10/30 09:47:07;;;;;;;15.37;10.00;;;;;;;;;;5035988;28;20624;-77
2022/10/30 09:49:50;;;;;;;15.87;10.17;;;;;;;;;;5041129;28;20243;-77
2022/10/30 09:52:48;;;;;;;17.30;9.27;;;;;;;;;;5046177;28;20224;-77
2022/10/30 09:55:25;;;;;;;15.80;9.40;;;;;;;;;;4991869;28;20566;-77
2022/10/30 09:58:11;;;;;;;13.03;8.50;;;;;;;;;;5057522;28;20223;-77
2022/10/30 10:00:39;;;;;;;14.07;8.87;;;;;;;;;;5037017;28;20217;-77
2022/10/30 10:03:31;;;;;;;14.30;8.90;;;;;;;;;;5040823;28;20209;-77
2022/10/30 10:06:18;;;;;;;15.00;7.97;;;;;;;;;;5035638;28;20263;-77
2022/10/30 10:09:12;;;;;;;13.97;8.10;;;;;;;;;;5029782;28;21162;-77
2022/10/30 10:11:58;;;;;;;10.90;7.90;;;;;;;;;;5043704;28;20201;-77
2022/10/30 10:14:27;;;;;;;13.70;8.37;;;;;;;;;;5037350;28;20189;-77
2022/10/30 10:16:55;;;;;;;14.87;8.33;;;;;;;;;;5048504;28;20725;-77
2022/10/30 10:19:21;;;;;;;11.63;7.83;;;;;;;;;;5035283;28;20387;-77
2022/10/30 10:22:05;;;;;;;12.20;7.67;;;;;;;;;;5035479;28;20178;-77
2022/10/30 10:24:37;;;;;;;11.17;7.53;;;;;;;;;;5035516;28;20239;-77
2022/10/30 10:27:03;;;;;;;14.80;8.43;;;;;;;;;;5058545;28;20189;-77
2022/10/30 10:29:52;;;;;;;13.87;8.63;;;;;;;;;;5038583;28;20243;-77
2022/10/30 10:32:27;;;;;;;16.17;8.20;;;;;;;;;;5023008;28;20774;-77
2022/10/30 10:35:09;;;;;;;12.83;8.97;;;;;;;;;;5034333;28;20746;-77
2022/10/30 10:37:53;;;;;;;11.83;8.10;;;;;;;;;;5037197;28;20194;-77
2022/10/30 10:40:35;;;;;;;17.40;8.60;;;;;;;;;;5032859;28;20492;-77
2022/10/30 10:43:01;;;;;;;13.57;7.63;;;;;;;;;;5036547;28;20198;-77
2022/10/30 10:45:32;;;;;;;14.13;9.10;;;;;;;;;;5035110;28;20232;-77
2022/10/30 10:48:07;;;;;;;13.10;7.83;;;;;;;;;;5034149;28;20579;-77
2022/10/30 10:50:36;;;;;;;14.97;9.13;;;;;;;;;;5035385;28;20692;-77
2022/10/30 10:53:05;;;;;;;15.27;7.40;;;;;;;;;;5036986;28;20174;-76
2022/10/30 10:55:35;;;;;;;12.17;6.87;;;;;;;;;;5053746;28;20229;-77
2022/10/30 10:58:14;;;;;;;15.20;6.90;;;;;;;;;;5032757;28;20195;-77
2022/10/30 11:00:40;;;;;;;13.20;6.50;;;;;;;;;;5032437;28;20236;-76
2022/10/30 11:03:12;;;;;;;10.17;5.90;;;;;;;;;;5035233;28;20294;-77
2022/10/30 11:05:50;;;;;;;16.70;6.57;;;;;;;;;;5033501;28;20567;-77
2022/10/30 11:08:26;;;;;;;16.23;6.67;;;;;;;;;;5035114;28;20196;-76
2022/10/30 11:11:02;;;;;;;9.87;6.00;;;;;;;;;;5033164;28;20242;-77
2022/10/30 11:13:35;;;;;;;12.57;6.40;;;;;;;;;;5032348;28;20201;-77
2022/10/30 11:16:13;;;;;;;9.13;5.33;;;;;;;;;;5031574;28;20235;-77
2022/10/30 11:18:40;;;;;;;11.10;4.93;;;;;;;;;;5034963;28;20248;-76
2022/10/30 11:21:25;;;;;;;12.00;5.40;;;;;;;;;;5033797;28;20206;-77
2022/10/30 11:23:52;;;;;;;10.67;5.80;;;;;;;;;;5035970;28;20186;-77
2022/10/30 11:26:24;;;;;;;13.60;6.83;;;;;;;;;;5035177;28;20198;-77
2022/10/30 11:28:59;;;;;;;11.10;5.47;;;;;;;;;;5033683;28;20190;-77
2022/10/30 11:31:29;;;;;;;14.43;4.63;;;;;;;;;;5032826;28;20271;-77
2022/10/30 11:33:55;;;;;;;9.30;5.10;;;;;;;;;;5039573;28;20210;-77
2022/10/30 11:36:22;;;;;;;9.33;4.53;;;;;;;;;;5037015;28;20201;-77
2022/10/30 11:38:49;;;;;;;11.30;4.53;;;;;;;;;;5033393;28;20209;-77
2022/10/30 11:41:15;;;;;;;8.33;4.40;;;;;;;;;;5034861;28;20220;-77
2022/10/30 11:43:42;;;;;;;9.83;4.83;;;;;;;;;;5035038;28;20625;-76
2022/10/30 11:46:11;;;;;;;8.83;4.47;;;;;;;;;;5037298;28;20206;-77
2022/10/30 11:48:38;;;;;;;8.57;4.03;;;;;;;;;;5031806;28;20176;-77
2022/10/30 11:51:05;;;;;;;12.90;4.53;;;;;;;;;;5038471;28;20257;-77
2022/10/30 11:53:39;;;;;;;10.90;5.03;;;;;;;;;;5038159;28;20273;-77
2022/10/30 11:56:16;;;;;;;9.20;4.50;;;;;;;;;;5032426;28;20216;-77
2022/10/30 11:58:44;;;;;;;9.10;4.70;;;;;;;;;;5035528;28;20190;-77
2022/10/30 12:01:21;;;;;;;11.60;5.00;;;;;;;;;;5031478;28;20221;-77
2022/10/30 12:03:48;;;;;;;10.20;4.57;;;;;;;;;;5032524;28;20233;-77
2022/10/30 12:06:24;;;;;;;15.87;4.70;;;;;;;;;;5030608;28;20610;-77
2022/10/30 12:09:09;;;;;;;11.30;5.00;;;;;;;;;;5036083;28;20348;-77
2022/10/30 12:11:35;;;;;;;10.17;4.70;;;;;;;;;;5034988;28;20182;-77
2022/10/30 12:14:02;;;;;;;12.73;4.57;;;;;;;;;;5033904;28;20220;-77
2022/10/30 12:16:28;;;;;;;6.57;4.10;;;;;;;;;;5034544;28;20213;-77
2022/10/30 12:19:01;;;;;;;12.63;4.80;;;;;;;;;;5034174;28;20185;-77
2022/10/30 12:21:28;;;;;;;7.90;4.13;;;;;;;;;;5032281;28;20171;-77
2022/10/30 12:23:56;;;;;;;10.50;4.13;;;;;;;;;;5034181;28;20193;-77
2022/10/30 12:26:23;;;;;;;9.30;4.20;;;;;;;;;;5030155;28;20239;-77
2022/10/30 12:28:58;;;;;;;10.27;3.80;;;;;;;;;;5033857;28;20186;-77
2022/10/30 12:31:34;;;;;;;9.03;3.90;;;;;;;;;;5035914;28;20182;-77
2022/10/30 12:34:06;;;;;;;11.20;3.70;;;;;;;;;;5050256;28;20186;-77
2022/10/30 12:36:35;;;;;;;12.27;3.90;;;;;;;;;;5031160;28;20206;-77
2022/10/30 12:39:11;;;;;;;12.17;4.10;;;;;;;;;;5034499;28;20191;-77
2022/10/30 12:41:43;;;;;;;7.97;3.47;;;;;;;;;;5036162;28;20177;-77
2022/10/30 12:44:25;;;;;;;11.03;4.70;;;;;;;;;;5036415;28;20190;-77
2022/10/30 12:47:11;;;;;;;9.27;4.80;;;;;;;;;;5056820;28;20190;-77
2022/10/30 12:49:39;;;;;;;13.63;5.10;;;;;;;;;;5034952;28;20190;-77
2022/10/30 12:52:12;;;;;;;10.23;4.27;;;;;;;;;;5034120;28;20191;-77
2022/10/30 12:54:41;;;;;;;8.53;3.87;;;;;;;;;;5033710;28;20248;-77
2022/10/30 12:57:10;;;;;;;7.63;3.50;;;;;;;;;;5038747;28;20186;-77
2022/10/30 12:59:55;;;;;;;9.03;4.50;;;;;;;;;;5033599;28;20213;-77
2022/10/30 13:02:38;;;;;;;12.37;5.10;;;;;;;;;;5031908;28;20252;-77
2022/10/30 13:05:27;;;;;;;10.93;5.37;;;;;;;;;;5033304;28;20208;-77
2022/10/30 13:08:02;;;;;;;10.80;5.20;;;;;;;;;;5032335;28;20207;-77
2022/10/30 13:10:28;;;;;;;10.33;4.90;;;;;;;;;;5028825;28;20196;-77
2022/10/30 13:13:00;;;;;;;10.00;5.10;;;;;;;;;;5034031;28;20193;-77
2022/10/30 13:15:36;;;;;;;8.40;4.43;;;;;;;;;;5037065;28;20237;-77
2022/10/30 13:18:12;;;;;;;7.93;4.20;;;;;;;;;;5036325;28;20473;-77
2022/10/30 13:20:38;;;;;;;8.17;3.60;;;;;;;;;;5039982;28;21076;-76
2022/10/30 13:23:11;;;;;;;6.00;3.43;;;;;;;;;;5036559;28;20178;-76
2022/10/30 13:25:57;;;;;;;7.37;3.87;;;;;;;;;;5039074;28;20201;-76
2022/10/30 13:28:26;;;;;;;8.23;3.43;;;;;;;;;;5036983;28;20182;-76
2022/10/30 13:31:04;;;;;;;8.07;4.83;;;;;;;;;;5036865;28;20187;-76
2022/10/30 13:33:35;;;;;;;8.93;5.27;;;;;;;;;;5035694;28;20662;-76
2022/10/30 13:36:01;;;;;;;10.47;5.60;;;;;;;;;;5036839;28;20567;-76
2022/10/30 13:38:42;;;;;;;10.50;5.60;;;;;;;;;;5036782;28;20190;-76
2022/10/30 13:41:14;;;;;;;11.40;5.10;;;;;;;;;;5036381;28;20269;-76
2022/10/30 13:43:53;;;;;;;11.70;5.00;;;;;;;;;;5033415;28;20238;-76
2022/10/30 13:46:24;;;;;;;8.13;4.17;;;;;;;;;;5034845;28;20217;-76
2022/10/30 13:49:07;;;;;;;9.63;4.30;;;;;;;;;;5038684;28;20212;-76
2022/10/30 13:51:52;;;;;;;10.10;3.87;;;;;;;;;;5035544;28;20197;-76
2022/10/30 13:54:38;;;;;;;7.23;3.70;;;;;;;;;;5037467;28;20190;-76
2022/10/30 13:57:09;;;;;;;5.07;3.27;;;;;;;;;;5036349;28;20194;-76
2022/10/30 13:59:38;;;;;;;7.73;3.20;;;;;;;;;;5039459;28;20485;-76
2022/10/30 14:02:25;;;;;;;5.37;2.97;;;;;;;;;;5038719;28;20196;-75
2022/10/30 14:04:54;;;;;;;6.10;3.03;;;;;;;;;;5037818;28;21842;-75
2022/10/30 14:07:52;;;;;;;6.67;3.37;;;;;;;;;;5035737;28;20204;-76
2022/10/30 14:10:21;;;;;;;5.80;2.90;;;;;;;;;;5024875;28;20193;-75
2022/10/30 14:12:56;;;;;;;7.13;3.17;;;;;;;;;;5035977;28;20563;-75
2022/10/30 14:15:27;;;;;;;6.53;3.03;;;;;;;;;;5035722;28;20214;-76
2022/10/30 14:18:11;;;;;;;10.03;3.50;;;;;;;;;;5034032;28;20190;-81
2022/10/30 14:20:42;;;;;;;7.57;3.23;;;;;;;;;;5048040;28;20225;-75
2022/10/30 14:23:12;;;;;;;6.40;3.50;;;;;;;;;;5033658;28;20721;-75
2022/10/30 14:25:38;;;;;;;8.83;3.30;;;;;;;;;;5035453;28;20195;-75
2022/10/30 14:28:05;;;;;;;9.40;3.50;;;;;;;;;;5040390;28;20652;-75
2022/10/30 14:30:34;;;;;;;11.40;3.60;;;;;;;;;;5036611;28;20189;-76
2022/10/30 14:33:00;;;;;;;9.57;3.73;;;;;;;;;;5033823;28;20238;-75
2022/10/30 14:35:31;;;;;;;7.53;3.37;;;;;;;;;;5034404;28;20241;-76
2022/10/30 14:38:14;;;;;;;8.23;3.53;;;;;;;;;;5034188;28;20275;-75
2022/10/30 14:40:45;;;;;;;8.60;3.50;;;;;;;;;;5034690;28;20271;-75
2022/10/30 14:43:23;;;;;;;9.73;3.27;;;;;;;;;;5035809;28;20180;-75
2022/10/30 14:45:58;;;;;;;8.97;4.10;;;;;;;;;;5032726;28;20273;-75
2022/10/30 14:48:25;;;;;;;10.63;4.03;;;;;;;;;;5035609;28;20183;-76
2022/10/30 14:51:30;;;;;;;9.00;4.27;;;;;;;;;;5031196;28;20560;-75
2022/10/30 14:54:11;;;;;;;9.00;4.60;;;;;;;;;;4956336;28;20747;-75
2022/10/30 14:56:46;;;;;;;8.47;4.23;;;;;;;;;;4968489;28;20574;-76
2022/10/30 14:59:12;;;;;;;9.47;4.57;;;;;;;;;;5010219;28;20918;-76